Time;durP1;ratioP1;P1;durP2;ratioP2;P2;SDS_P1;SDS_P2;PMS_P1;PMS_P2;Temp;Humidity;BMP_temperature;BMP_pressure;BME280_temperature;BME280_humidity;BME280_pressure;Samples;Min_cycle;Max_cycle;Signal;HPM_P1;HPM_P2
2023/06/13 00:01:11;;;;;;;8.63;4.30;;;;;;;20.07;50.52;101313.75;5157775;27;20038;-60
2023/06/13 00:03:40;;;;;;;9.75;4.43;;;;;;;20.05;50.42;101309.56;5157634;27;20389;-62
2023/06/13 00:06:09;;;;;;;8.15;4.30;;;;;;;19.99;50.62;101312.81;5157512;27;20042;-61
2023/06/13 00:08:40;;;;;;;9.38;4.07;;;;;;;19.95;51.01;101311.44;5155786;27;20577;-61
2023/06/13 00:11:08;;;;;;;7.50;4.10;;;;;;;19.92;51.31;101301.94;5153366;27;20518;-61
2023/06/13 00:13:36;;;;;;;7.25;4.05;;;;;;;19.98;50.89;101312.00;5135202;27;20069;-61
2023/06/13 00:16:05;;;;;;;11.07;4.45;;;;;;;19.88;51.41;101306.72;5136341;27;20062;-60
2023/06/13 00:18:33;;;;;;;7.18;4.07;;;;;;;19.82;52.00;101317.16;5157464;27;20157;-61
2023/06/13 00:21:02;;;;;;;7.53;4.20;;;;;;;19.82;51.60;101317.16;5157422;27;20047;-61
2023/06/13 00:23:30;;;;;;;9.73;4.32;;;;;;;19.72;52.01;101307.34;5157214;27;20536;-60
2023/06/13 00:26:02;;;;;;;9.00;3.90;;;;;;;19.69;52.25;101312.97;5157326;27;20402;-61
2023/06/13 00:28:30;;;;;;;8.73;4.60;;;;;;;19.62;53.33;101313.72;5153649;27;20382;-60
2023/06/13 00:30:59;;;;;;;7.20;4.35;;;;;;;19.58;52.53;101313.19;5154746;27;20046;-61
2023/06/13 00:33:31;;;;;;;8.80;4.20;;;;;;;19.55;52.89;101313.47;5157277;27;20050;-48
2023/06/13 00:35:59;;;;;;;8.07;4.20;;;;;;;19.58;54.02;101310.50;5156887;27;20051;-61
2023/06/13 00:38:30;;;;;;;8.93;4.40;;;;;;;19.50;54.92;101305.91;5157086;27;20050;-60
2023/06/13 00:40:58;;;;;;;10.50;4.10;;;;;;;19.46;54.66;101304.53;5157129;27;20043;-61
2023/06/13 00:43:29;;;;;;;7.85;4.20;;;;;;;19.40;55.83;101302.44;5156593;27;20137;-61
2023/06/13 00:46:00;;;;;;;9.75;4.18;;;;;;;19.38;56.32;101310.56;5156252;27;20397;-62
2023/06/13 00:48:29;;;;;;;7.45;4.10;;;;;;;19.38;55.58;101309.75;5156807;27;20377;-60
2023/06/13 00:50:57;;;;;;;9.55;4.05;;;;;;;19.34;56.86;101308.38;5156668;27;20145;-60
2023/06/13 00:53:29;;;;;;;7.68;3.88;;;;;;;19.29;56.88;101308.78;5156640;27;20043;-60
2023/06/13 00:55:59;;;;;;;8.52;4.57;;;;;;;19.28;57.47;101300.94;5156868;27;20121;-61
2023/06/13 00:58:29;;;;;;;9.00;4.05;;;;;;;19.22;57.50;101297.88;5157052;27;20038;-60
2023/06/13 01:00:58;;;;;;;10.45;4.28;;;;;;;19.20;56.93;101299.03;5138158;27;20050;-61
2023/06/13 01:03:26;;;;;;;8.70;4.35;;;;;;;19.16;57.51;101302.97;5156507;27;20146;-61
2023/06/13 01:05:54;;;;;;;9.27;4.80;;;;;;;19.09;57.09;101294.69;5156694;27;20095;-62
2023/06/13 01:08:25;;;;;;;12.50;4.57;;;;;;;19.05;57.63;101294.13;5156499;27;20043;-49
2023/06/13 01:11:00;;;;;;;10.38;4.45;;;;;;;19.10;56.79;101293.69;5156587;27;20168;-61
2023/06/13 01:13:34;;;;;;;7.78;4.28;;;;;;;19.06;57.03;101292.31;5156366;27;20042;-61
2023/06/13 01:16:14;;;;;;;8.77;4.22;;;;;;;19.02;57.70;101285.59;5156599;27;20042;-60
2023/06/13 01:18:44;;;;;;;8.95;5.00;;;;;;;19.03;58.12;101282.78;5153656;27;20046;-60
2023/06/13 01:21:14;;;;;;;9.65;5.18;;;;;;;19.00;59.08;101285.72;5153167;27;20039;-60
2023/06/13 01:23:49;;;;;;;7.47;4.13;;;;;;;18.92;59.98;101291.81;5156158;27;20397;-61
2023/06/13 01:26:29;;;;;;;7.07;4.40;;;;;;;18.89;60.69;101297.41;5156291;27;20134;-60
2023/06/13 01:29:00;;;;;;;10.25;4.50;;;;;;;18.85;61.45;101293.31;5156099;27;20038;-60
2023/06/13 01:31:29;;;;;;;9.50;5.05;;;;;;;18.76;61.83;101291.53;5156319;27;20504;-60
2023/06/13 01:33:57;;;;;;;6.75;4.43;;;;;;;18.71;62.09;101283.94;5156036;27;20043;-61
2023/06/13 01:36:26;;;;;;;8.25;4.90;;;;;;;18.69;62.68;101290.38;5156048;27;20053;-60
2023/06/13 01:38:55;;;;;;;8.05;4.60;;;;;;;18.65;63.19;101294.31;5155789;27;20042;-60
2023/06/13 01:41:23;;;;;;;11.63;4.80;;;;;;;18.64;63.10;101284.66;5152303;27;20057;-60
2023/06/13 01:43:51;;;;;;;12.05;4.53;;;;;;;18.62;63.15;101290.13;5152439;27;20045;-60
2023/06/13 01:46:26;;;;;;;8.95;4.43;;;;;;;18.48;64.01;101287.91;5155532;27;20050;-52
2023/06/13 01:49:10;;;;;;;9.07;4.43;;;;;;;18.48;64.17;101287.91;5155728;27;20049;-52
2023/06/13 01:51:48;;;;;;;9.57;4.35;;;;;;;18.43;64.47;101290.97;5155593;27;20501;-48
2023/06/13 01:54:22;;;;;;;9.18;4.80;;;;;;;18.34;65.33;101284.69;5151685;27;20099;-52
2023/06/13 01:56:54;;;;;;;9.88;4.68;;;;;;;18.32;64.61;101294.59;5150492;27;20081;-53
2023/06/13 01:59:26;;;;;;;9.40;5.00;;;;;;;18.18;64.57;101292.38;5133490;27;20082;-51
2023/06/13 02:01:57;;;;;;;11.13;4.82;;;;;;;18.18;65.60;101292.38;5133793;27;20161;-50
2023/06/13 02:04:27;;;;;;;8.30;4.78;;;;;;;18.08;65.51;101295.03;5133093;27;20043;-52
2023/06/13 02:06:56;;;;;;;8.18;4.93;;;;;;;18.09;65.61;101291.38;5155443;27;20498;-51
2023/06/13 02:09:24;;;;;;;9.25;4.50;;;;;;;18.06;65.15;101289.84;5154897;27;20585;-51
2023/06/13 02:11:52;;;;;;;7.93;4.63;;;;;;;18.03;65.14;101294.59;5151867;27;20042;-51
2023/06/13 02:14:20;;;;;;;9.75;4.90;;;;;;;18.01;65.57;101294.75;5133373;27;20039;-60
2023/06/13 02:16:51;;;;;;;8.68;5.53;;;;;;;18.02;65.81;101295.56;5136269;27;20038;-50
2023/06/13 02:19:21;;;;;;;8.52;4.63;;;;;;;18.01;65.05;101297.41;5154734;27;20095;-60
2023/06/13 02:21:49;;;;;;;7.93;4.93;;;;;;;17.94;66.32;101295.41;5154703;27;20046;-60
2023/06/13 02:24:18;;;;;;;11.13;5.20;;;;;;;17.83;66.17;101289.22;5154432;27;20026;-60
2023/06/13 02:26:46;;;;;;;7.80;4.57;;;;;;;17.77;66.21;101294.25;5154633;27;20636;-60
2023/06/13 02:29:15;;;;;;;10.65;5.35;;;;;;;17.68;67.05;101293.22;5154456;27;20043;-60
2023/06/13 02:31:43;;;;;;;8.65;4.22;;;;;;;17.63;66.93;101290.13;5151747;27;20111;-60
2023/06/13 02:34:12;;;;;;;8.35;5.05;;;;;;;17.60;67.83;101293.06;5151882;27;20039;-60
2023/06/13 02:36:42;;;;;;;9.48;4.97;;;;;;;17.63;67.28;101296.31;5135924;27;20058;-60
2023/06/13 02:39:11;;;;;;;7.45;4.82;;;;;;;17.60;67.37;101290.41;5151905;27;20050;-60
2023/06/13 02:41:39;;;;;;;7.88;4.57;;;;;;;17.58;67.84;101295.84;5150029;27;20496;-60
2023/06/13 02:44:09;;;;;;;7.95;4.60;;;;;;;17.57;68.08;101291.50;5154040;27;20457;-60
2023/06/13 02:46:37;;;;;;;8.95;4.80;;;;;;;17.49;68.04;101294.84;5135802;27;20054;-60
2023/06/13 02:49:06;;;;;;;8.75;4.50;;;;;;;17.47;68.51;101295.97;5154698;27;20045;-60
2023/06/13 02:51:35;;;;;;;8.57;4.88;;;;;;;17.46;68.24;101291.63;5154682;27;20523;-60
2023/06/13 02:54:08;;;;;;;10.13;4.88;;;;;;;17.43;68.42;101291.88;5154837;27;20038;-60
2023/06/13 02:56:36;;;;;;;12.35;4.97;;;;;;;17.44;68.34;101294.41;5154726;27;20051;-60
2023/06/13 02:59:04;;;;;;;8.40;4.97;;;;;;;17.46;68.32;101299.59;5154116;27;20450;-51
2023/06/13 03:01:33;;;;;;;8.35;4.60;;;;;;;17.43;68.73;101291.88;5133205;27;20058;-60
2023/06/13 03:04:01;;;;;;;9.60;5.30;;;;;;;17.27;69.28;101293.22;5153206;27;20039;-60
2023/06/13 03:06:31;;;;;;;9.57;4.82;;;;;;;17.22;70.05;101296.28;5154341;27;20043;-52
2023/06/13 03:08:59;;;;;;;10.60;5.03;;;;;;;17.18;70.87;101292.19;5151195;27;20053;-51
2023/06/13 03:11:28;;;;;;;8.48;4.72;;;;;;;17.10;70.53;101291.16;5150360;27;20046;-60
2023/06/13 03:13:56;;;;;;;9.02;5.03;;;;;;;17.06;70.15;101298.56;5154269;27;20042;-61
2023/06/13 03:16:27;;;;;;;8.57;4.90;;;;;;;17.01;70.30;101298.94;5154433;27;20035;-51
2023/06/13 03:18:55;;;;;;;8.60;4.55;;;;;;;17.00;69.86;101302.59;5135728;27;20091;-51
2023/06/13 03:21:24;;;;;;;7.18;4.55;;;;;;;16.99;70.04;101313.34;5154023;27;20501;-49
2023/06/13 03:23:55;;;;;;;11.70;4.97;;;;;;;16.95;70.63;101303.97;5153554;27;20520;-49
2023/06/13 03:26:23;;;;;;;10.77;5.05;;;;;;;16.99;69.90;101306.22;5131023;27;20050;-49
2023/06/13 03:28:53;;;;;;;12.38;5.00;;;;;;;16.92;70.53;101307.72;5151864;27;20039;-53
2023/06/13 03:31:21;;;;;;;9.98;4.90;;;;;;;16.93;71.62;101316.53;5152207;27;20031;-52
2023/06/13 03:33:49;;;;;;;8.68;4.70;;;;;;;16.93;71.38;101309.38;5150988;27;20070;-51
2023/06/13 03:36:19;;;;;;;12.25;5.65;;;;;;;16.87;72.07;101312.53;5149757;27;20046;-60
2023/06/13 03:38:47;;;;;;;8.63;5.22;;;;;;;16.85;71.79;101307.38;5150834;27;20154;-52
2023/06/13 03:41:15;;;;;;;9.10;5.47;;;;;;;16.91;71.33;101303.38;5151970;27;20388;-49
2023/06/13 03:43:43;;;;;;;10.32;5.10;;;;;;;16.83;71.76;101305.81;5153955;27;20070;-49
2023/06/13 03:46:13;;;;;;;9.13;5.05;;;;;;;16.84;72.77;101312.81;5153830;27;20122;-48
2023/06/13 03:48:43;;;;;;;9.35;5.47;;;;;;;16.78;72.99;101305.34;5150879;27;20446;-50
2023/06/13 03:51:11;;;;;;;8.85;5.28;;;;;;;16.72;73.43;101304.88;5150365;27;20039;-50
2023/06/13 03:53:40;;;;;;;10.30;5.03;;;;;;;16.77;73.02;101304.50;5153629;27;20041;-48
2023/06/13 03:56:08;;;;;;;9.40;4.95;;;;;;;16.69;73.93;101302.50;5151028;27;20078;-49
2023/06/13 03:58:36;;;;;;;9.18;5.32;;;;;;;16.77;74.08;101296.53;5150255;27;20081;-49
2023/06/13 04:01:06;;;;;;;10.55;5.82;;;;;;;16.69;74.00;101297.19;5134608;27;20054;-49
2023/06/13 04:03:39;;;;;;;9.73;5.00;;;;;;;16.61;75.12;101302.28;5153714;27;20417;-60
2023/06/13 04:06:08;;;;;;;10.52;5.57;;;;;;;16.63;75.51;101295.03;5153847;27;20038;-60
2023/06/13 04:08:36;;;;;;;10.10;5.53;;;;;;;16.57;75.49;101298.22;5153638;27;20057;-61
2023/06/13 04:11:05;;;;;;;9.73;5.20;;;;;;;16.64;75.21;101306.50;5134978;27;20042;-51
2023/06/13 04:13:33;;;;;;;9.07;5.15;;;;;;;16.67;76.17;101303.59;5153441;27;20077;-51
2023/06/13 04:16:01;;;;;;;9.52;5.50;;;;;;;16.65;76.15;101311.69;5150600;27;20042;-60
2023/06/13 04:18:30;;;;;;;14.38;5.63;;;;;;;16.64;76.57;101299.38;5150169;27;20042;-61
2023/06/13 04:21:03;;;;;;;9.40;5.32;;;;;;;16.67;76.66;101296.44;5134794;27;20451;-60
2023/06/13 04:23:32;;;;;;;10.70;5.93;;;;;;;16.66;76.76;101299.25;5155975;27;20122;-52
2023/06/13 04:26:02;;;;;;;9.48;5.25;;;;;;;16.68;77.43;101303.44;5157574;27;20050;-48
2023/06/13 04:28:32;;;;;;;10.32;5.50;;;;;;;16.70;77.14;101306.84;5153149;27;20444;-49
2023/06/13 04:31:03;;;;;;;12.30;5.70;;;;;;;16.69;77.87;101305.16;5155148;27;20050;-48
2023/06/13 04:33:33;;;;;;;10.88;5.22;;;;;;;16.75;77.28;101305.59;5157346;27;20043;-61
2023/06/13 04:36:05;;;;;;;8.18;4.80;;;;;;;16.78;78.03;101302.69;5157244;27;20126;-61
2023/06/13 04:38:37;;;;;;;10.30;5.93;;;;;;;16.80;77.59;101300.75;5157480;27;20042;-61
2023/06/13 04:41:09;;;;;;;9.23;5.60;;;;;;;16.83;77.49;101303.16;5157175;27;20051;-60
2023/06/13 04:43:38;;;;;;;9.85;5.43;;;;;;;16.84;78.17;101308.31;5157151;27;20078;-60
2023/06/13 04:46:07;;;;;;;11.40;5.93;;;;;;;16.85;77.47;101303.84;5156876;27;20054;-47
2023/06/13 04:48:37;;;;;;;13.30;6.35;;;;;;;16.91;77.65;101308.69;5154379;27;20050;-52
2023/06/13 04:51:09;;;;;;;11.95;5.80;;;;;;;16.92;77.81;101302.41;5153606;27;20070;-52
2023/06/13 04:53:38;;;;;;;9.18;5.40;;;;;;;16.99;77.74;101310.69;5138302;27;20055;-60
2023/06/13 04:56:07;;;;;;;14.90;5.68;;;;;;;17.09;77.89;101297.47;5138185;27;20043;-60
2023/06/13 04:58:36;;;;;;;10.45;6.13;;;;;;;17.13;78.55;101296.22;5157124;27;20070;-62
2023/06/13 05:01:04;;;;;;;9.48;5.60;;;;;;;17.18;78.80;101300.16;5156711;27;20042;-60
2023/06/13 05:03:32;;;;;;;10.05;6.10;;;;;;;17.23;77.50;101299.75;5156781;27;20134;-61
2023/06/13 05:06:00;;;;;;;10.20;6.55;;;;;;;17.28;77.48;101308.19;5156637;27;20122;-62
2023/06/13 05:08:31;;;;;;;10.93;5.90;;;;;;;17.37;76.58;101311.88;5156604;27;20050;-51
2023/06/13 05:10:59;;;;;;;9.35;5.63;;;;;;;17.43;77.08;101302.53;5154306;27;20047;-61
2023/06/13 05:13:28;;;;;;;10.70;5.55;;;;;;;17.55;78.53;101317.41;5152923;27;20077;-50
2023/06/13 05:15:56;;;;;;;11.40;5.72;;;;;;;17.60;77.53;101317.84;5155682;27;20050;-52
2023/06/13 05:18:29;;;;;;;11.48;5.55;;;;;;;17.71;74.26;101315.09;5156418;27;20038;-50
2023/06/13 05:20:58;;;;;;;11.85;6.63;;;;;;;17.86;73.61;101325.31;5155821;27;20042;-52
2023/06/13 05:23:28;;;;;;;9.27;5.43;;;;;;;17.85;74.05;101323.66;5152963;27;20091;-51
2023/06/13 05:25:58;;;;;;;10.70;5.80;;;;;;;17.92;72.00;101324.00;5152503;27;20034;-61
2023/06/13 05:28:26;;;;;;;9.27;6.25;;;;;;;17.89;71.97;101323.25;5152548;27;20051;-61
2023/06/13 05:30:54;;;;;;;12.35;6.00;;;;;;;17.98;72.08;101332.25;5154326;27;20123;-52
2023/06/13 05:33:22;;;;;;;11.77;6.07;;;;;;;18.00;72.55;101327.66;5152688;27;20047;-52
2023/06/13 05:35:51;;;;;;;10.18;5.63;;;;;;;18.14;72.14;101337.06;5152531;27;20038;-61
2023/06/13 05:38:25;;;;;;;10.35;6.13;;;;;;;18.16;72.58;101332.44;5152708;27;20466;-50
2023/06/13 05:40:57;;;;;;;13.07;5.78;;;;;;;18.25;71.72;101330.75;5155543;27;20038;-50
2023/06/13 05:43:25;;;;;;;10.63;5.57;;;;;;;18.32;71.50;101331.88;5156042;27;20054;-53
2023/06/13 05:45:53;;;;;;;11.35;6.10;;;;;;;18.38;74.41;101334.00;5154620;27;20054;-52
2023/06/13 05:48:23;;;;;;;13.70;6.50;;;;;;;18.51;72.63;101332.88;5151618;27;20042;-50
2023/06/13 05:50:52;;;;;;;10.60;6.28;;;;;;;18.61;73.46;101339.06;5152108;27;20096;-50
2023/06/13 05:53:23;;;;;;;9.20;5.47;;;;;;;18.73;71.12;101329.94;5152247;27;20394;-50
2023/06/13 05:55:51;;;;;;;10.02;5.97;;;;;;;18.83;70.63;101326.41;5151619;27;20103;-52
2023/06/13 05:58:20;;;;;;;10.65;5.93;;;;;;;18.94;70.63;101331.63;5152545;27;20504;-51
2023/06/13 06:00:50;;;;;;;8.40;5.18;;;;;;;19.09;69.13;101335.50;5155852;27;20106;-49
2023/06/13 06:03:21;;;;;;;11.55;5.93;;;;;;;19.16;69.62;101340.28;5153117;27;20065;-50
2023/06/13 06:05:49;;;;;;;9.40;5.38;;;;;;;19.29;68.96;101329.28;5151657;27;20038;-52
2023/06/13 06:08:18;;;;;;;10.63;5.50;;;;;;;19.43;69.74;101327.00;5152384;27;20042;-50
2023/06/13 06:10:46;;;;;;;9.75;5.75;;;;;;;19.53;69.22;101328.78;5151617;27;20051;-49
2023/06/13 06:13:14;;;;;;;10.50;5.93;;;;;;;19.63;68.26;101329.56;5132418;27;20076;-51
2023/06/13 06:15:46;;;;;;;12.35;5.50;;;;;;;19.74;67.78;101326.72;5152160;27;20042;-51
2023/06/13 06:18:15;;;;;;;9.27;5.80;;;;;;;19.89;67.59;101331.56;5153671;27;20450;-51
2023/06/13 06:20:43;;;;;;;9.85;6.13;;;;;;;20.05;65.89;101330.91;5152003;27;20107;-52
2023/06/13 06:23:12;;;;;;;7.82;5.13;;;;;;;20.14;67.13;101327.34;5152455;27;20558;-52
2023/06/13 06:25:41;;;;;;;8.73;5.68;;;;;;;20.24;66.10;101324.59;5153641;27;20035;-52
2023/06/13 06:28:09;;;;;;;9.88;5.28;;;;;;;20.37;64.43;101325.06;5150951;27;20074;-63
2023/06/13 06:30:37;;;;;;;7.90;4.80;;;;;;;20.54;64.00;101328.72;5152303;27;20053;-62
2023/06/13 06:33:07;;;;;;;9.30;5.30;;;;;;;20.65;62.44;101335.66;5133437;27;20081;-51
2023/06/13 06:35:36;;;;;;;9.48;5.40;;;;;;;20.70;62.19;101332.56;5151331;27;20042;-62
2023/06/13 06:38:04;;;;;;;8.80;4.95;;;;;;;20.83;63.04;101334.81;5154978;27;20500;-63
2023/06/13 06:40:32;;;;;;;9.07;4.90;;;;;;;20.90;62.58;101330.53;5153354;27;20047;-62
2023/06/13 06:43:00;;;;;;;9.27;5.10;;;;;;;21.08;63.41;101339.34;5150445;27;20085;-53
2023/06/13 06:45:28;;;;;;;9.57;5.47;;;;;;;21.25;63.29;101334.94;5153233;27;20043;-52
2023/06/13 06:47:57;;;;;;;9.35;5.22;;;;;;;21.39;61.11;101338.88;5151363;27;20107;-53
2023/06/13 06:50:27;;;;;;;11.10;4.90;;;;;;;21.65;61.13;101339.84;5150628;27;20055;-52
2023/06/13 06:52:55;;;;;;;9.18;5.32;;;;;;;21.77;60.49;101336.75;5152724;27;20566;-53
2023/06/13 06:55:23;;;;;;;8.60;4.80;;;;;;;21.88;55.55;101334.75;5154336;27;20035;-53
2023/06/13 06:57:53;;;;;;;8.30;4.78;;;;;;;22.08;56.91;101340.66;5151224;27;20564;-53
2023/06/13 07:00:23;;;;;;;8.80;4.97;;;;;;;22.27;55.75;101342.22;5150665;27;20050;-51
2023/06/13 07:02:51;;;;;;;7.90;4.65;;;;;;;22.40;54.02;101339.91;5150970;27;20714;-51
2023/06/13 07:05:19;;;;;;;10.13;4.95;;;;;;;22.49;55.37;101346.13;5149792;27;20038;-52
2023/06/13 07:07:49;;;;;;;8.82;4.65;;;;;;;22.62;53.89;101338.41;5151081;27;20055;-53
2023/06/13 07:10:17;;;;;;;10.65;4.47;;;;;;;22.74;56.20;101352.34;5152824;27;20050;-51
2023/06/13 07:12:45;;;;;;;8.80;4.47;;;;;;;22.94;54.46;101349.28;5154314;27;20038;-53
2023/06/13 07:15:14;;;;;;;9.23;4.68;;;;;;;23.11;53.36;101350.94;5135044;27;20034;-52
2023/06/13 07:17:42;;;;;;;10.93;4.72;;;;;;;23.29;53.35;101353.44;5151309;27;20046;-50
2023/06/13 07:20:11;;;;;;;10.80;5.10;;;;;;;23.44;53.46;101356.25;5131359;27;20050;-50
2023/06/13 07:22:40;;;;;;;9.63;4.97;;;;;;;23.60;52.38;101344.63;5132529;27;20142;-50
2023/06/13 07:25:10;;;;;;;8.68;4.40;;;;;;;23.71;52.13;101347.94;5150130;27;20949;-51
2023/06/13 07:27:38;;;;;;;8.07;4.60;;;;;;;23.81;49.86;101351.25;5149765;27;20051;-53
2023/06/13 07:30:08;;;;;;;10.95;5.05;;;;;;;23.95;49.96;101350.53;5151005;27;20565;-53
2023/06/13 07:32:36;;;;;;;8.30;4.70;;;;;;;24.13;50.20;101342.22;5151141;27;20725;-53
2023/06/13 07:35:05;;;;;;;8.98;4.47;;;;;;;24.19;48.13;101346.03;5152575;27;20035;-50
2023/06/13 07:37:35;;;;;;;9.52;4.55;;;;;;;24.28;46.73;101347.66;5153822;27;20058;-50
2023/06/13 07:40:05;;;;;;;8.30;4.25;;;;;;;24.46;48.35;101346.53;5153791;27;20039;-51
2023/06/13 07:42:34;;;;;;;7.57;3.97;;;;;;;24.61;46.03;101354.63;5154255;27;20444;-52
2023/06/13 07:45:03;;;;;;;12.07;4.80;;;;;;;24.57;46.58;101348.78;5153501;27;20097;-49
2023/06/13 07:47:31;;;;;;;10.38;4.45;;;;;;;24.54;45.06;101346.47;5151416;27;20059;-51
2023/06/13 07:49:59;;;;;;;9.52;4.65;;;;;;;24.66;45.75;101344.19;5131405;27;20051;-51
2023/06/13 07:52:27;;;;;;;9.60;3.95;;;;;;;24.80;45.12;101348.78;5152864;27;20042;-51
2023/06/13 07:54:57;;;;;;;6.85;4.15;;;;;;;24.83;46.22;101346.75;5152429;27;20038;-51
2023/06/13 07:57:25;;;;;;;8.95;4.30;;;;;;;24.95;44.20;101346.13;5154173;27;20047;-48
2023/06/13 08:00:16;;;;;;;8.38;4.13;;;;;;;25.09;42.44;101344.47;5157695;27;20135;-48
2023/06/13 08:02:45;;;;;;;7.47;4.10;;;;;;;25.32;43.75;101343.56;5154877;27;20039;-62
2023/06/13 08:05:15;;;;;;;9.40;4.35;;;;;;;25.51;43.41;101341.34;5153900;27;20054;-53
2023/06/13 08:07:44;;;;;;;11.05;4.57;;;;;;;25.52;42.61;101335.78;5157544;27;20043;-60
2023/06/13 08:10:12;;;;;;;9.77;4.03;;;;;;;25.78;41.86;101343.38;5157420;27;20039;-57
2023/06/13 08:12:41;;;;;;;8.35;4.30;;;;;;;25.92;42.82;101335.44;5157453;27;20035;-60
2023/06/13 08:15:09;;;;;;;10.27;4.05;;;;;;;26.03;42.49;101340.38;5157274;27;20594;-53
2023/06/13 08:17:41;;;;;;;7.38;4.45;;;;;;;26.06;41.31;101328.38;5157578;27;20555;-63
2023/06/13 08:20:10;;;;;;;;;;;;;;;26.21;40.59;101334.53;5158071;27;20061;-53
2023/06/13 08:22:39;;;;;;;7.20;4.32;;;;;;;26.31;40.09;101337.78;5156354;27;19919;-64
2023/06/13 08:25:08;;;;;;;9.13;4.40;;;;;;;26.37;38.64;101340.69;5135628;27;20086;-64
2023/06/13 08:27:37;;;;;;;8.40;4.32;;;;;;;26.53;39.67;101331.53;5155884;27;20039;-53
2023/06/13 08:30:06;;;;;;;8.20;4.10;;;;;;;26.55;38.54;101334.88;5157096;27;20077;-65
2023/06/13 08:32:35;;;;;;;6.47;3.80;;;;;;;26.48;37.75;101341.03;5154222;27;20484;-62
2023/06/13 08:35:05;;;;;;;9.02;3.67;;;;;;;26.73;37.52;101337.94;5154268;27;20085;-63
2023/06/13 08:37:33;;;;;;;8.43;4.25;;;;;;;26.96;39.07;101335.00;5157095;27;20123;-62
2023/06/13 08:40:04;;;;;;;7.30;3.90;;;;;;;27.11;35.90;101340.28;5136431;27;20054;-65
2023/06/13 08:42:33;;;;;;;8.18;4.25;;;;;;;27.07;34.83;101335.50;5153294;27;20624;-63
2023/06/13 08:45:02;;;;;;;8.43;4.05;;;;;;;27.04;34.59;101338.56;5156290;27;20031;-64
2023/06/13 08:47:30;;;;;;;6.72;3.67;;;;;;;27.25;35.38;101340.38;5153155;27;20046;-63
2023/06/13 08:50:08;;;;;;;6.47;3.78;;;;;;;27.38;35.37;101335.09;5153547;27;20047;-64
2023/06/13 08:52:39;;;;;;;7.32;3.97;;;;;;;27.31;35.11;101326.09;5156435;27;20073;-66
2023/06/13 08:55:14;;;;;;;7.07;4.45;;;;;;;27.44;35.70;101334.28;5156848;27;20130;-64
2023/06/13 08:57:49;;;;;;;8.95;4.00;;;;;;;27.58;35.02;101329.78;5155703;27;20469;-64
2023/06/13 09:00:18;;;;;;;7.30;4.33;;;;;;;27.80;33.70;101333.19;5153458;27;20058;-63
2023/06/13 09:02:47;;;;;;;8.45;3.90;;;;;;;27.86;33.49;101309.09;5153573;27;20050;-65
2023/06/13 09:05:20;;;;;;;8.75;4.20;;;;;;;28.05;32.51;101319.16;5151804;27;20043;-64
2023/06/13 09:07:52;;;;;;;10.73;4.20;;;;;;;27.99;32.67;101315.38;5153598;27;20092;-56
2023/06/13 09:10:36;;;;;;;7.53;3.70;;;;;;;28.29;32.54;101323.16;5154355;27;20129;-56
2023/06/13 09:13:05;;;;;;;7.70;3.45;;;;;;;27.91;30.38;101329.06;5154699;27;20676;-56
2023/06/13 09:15:34;;;;;;;7.25;3.58;;;;;;;28.14;31.06;101307.09;5153642;27;20070;-55
2023/06/13 09:18:02;;;;;;;8.23;3.67;;;;;;;28.55;30.97;101321.50;5153378;27;20112;-56
2023/06/13 09:20:32;;;;;;;7.60;3.53;;;;;;;28.81;30.62;101317.16;5153268;27;20454;-55
2023/06/13 09:23:01;;;;;;;6.63;3.80;;;;;;;29.00;29.83;101310.84;5156350;27;20047;-56
2023/06/13 09:25:33;;;;;;;7.88;3.78;;;;;;;29.17;29.22;101313.94;5154002;27;20047;-64
2023/06/13 09:28:32;;;;;;;5.67;3.47;;;;;;;29.34;28.74;101306.22;5152010;27;20042;-54
2023/06/13 09:31:00;;;;;;;8.35;3.88;;;;;;;29.38;29.00;101301.19;5153661;27;21041;-56
2023/06/13 09:33:29;;;;;;;7.97;3.85;;;;;;;29.40;28.48;101309.13;5154790;27;20042;-56
2023/06/13 09:35:58;;;;;;;6.40;3.92;;;;;;;29.26;27.62;101300.19;5152853;27;20118;-56
2023/06/13 09:38:34;;;;;;;8.02;4.05;;;;;;;29.12;28.32;101296.66;5155514;27;20365;-56
2023/06/13 09:41:04;;;;;;;7.28;3.67;;;;;;;29.32;28.66;101308.28;5156146;27;20423;-55
2023/06/13 09:43:32;;;;;;;5.57;3.45;;;;;;;29.17;28.62;101311.22;5155776;27;20050;-56
2023/06/13 09:46:02;;;;;;;9.05;4.07;;;;;;;29.27;28.28;101304.56;5154381;27;20498;-55
2023/06/13 09:48:30;;;;;;;8.95;4.00;;;;;;;29.60;27.76;101312.56;5152446;27;20111;-57
2023/06/13 09:51:10;;;;;;;9.35;4.10;;;;;;;29.82;27.91;101301.41;5152332;27;20043;-56
2023/06/13 09:53:39;;;;;;;8.98;3.83;;;;;;;29.98;26.96;101298.22;5152466;27;20049;-57
2023/06/13 09:56:09;;;;;;;6.80;3.67;;;;;;;29.92;26.90;101292.84;5152396;27;20082;-56
2023/06/13 09:58:41;;;;;;;6.38;3.55;;;;;;;29.79;26.18;101291.84;5153828;27;20117;-56
2023/06/13 10:01:14;;;;;;;6.63;3.58;;;;;;;29.86;26.08;101299.97;5155765;27;20103;-56
2023/06/13 10:03:43;;;;;;;8.27;4.13;;;;;;;29.45;25.97;101290.31;5134238;27;20049;-56
2023/06/13 10:06:14;;;;;;;8.43;4.20;;;;;;;29.50;26.28;101288.66;5151409;27;20051;-56
2023/06/13 10:08:42;;;;;;;8.48;4.00;;;;;;;29.83;26.00;101294.91;5152181;27;20047;-56
2023/06/13 10:11:14;;;;;;;9.80;4.20;;;;;;;29.66;25.90;101305.44;5151748;27;20107;-65
2023/06/13 10:13:51;;;;;;;10.27;4.50;;;;;;;29.80;26.61;101295.38;5153543;27;20053;-65
2023/06/13 10:16:22;;;;;;;9.23;3.97;;;;;;;30.05;25.52;101300.03;5135943;27;20051;-64
2023/06/13 10:18:54;;;;;;;7.80;4.30;;;;;;;30.33;25.52;101299.63;5152486;27;20042;-65
2023/06/13 10:21:24;;;;;;;6.22;3.83;;;;;;;30.57;24.46;101303.44;5133263;27;20497;-56
2023/06/13 10:23:55;;;;;;;7.18;3.80;;;;;;;30.54;25.63;101297.59;5152285;27;20049;-62
2023/06/13 10:26:34;;;;;;;9.80;4.13;;;;;;;30.87;25.23;101291.03;5154404;27;20047;-56
2023/06/13 10:29:50;;;;;;;7.22;4.03;;;;;;;31.06;25.11;101284.59;5151897;27;20505;-56
2023/06/13 10:32:40;;;;;;;7.00;3.70;;;;;;;31.19;25.91;101292.56;5153785;27;20046;-57
2023/06/13 10:35:23;;;;;;;10.05;4.03;;;;;;;31.07;25.08;101302.53;5151504;27;20056;-57
2023/06/13 10:38:05;;;;;;;;;;;;;;;31.33;24.86;101285.13;5153211;27;20504;-56
2023/06/13 10:41:05;;;;;;;7.45;3.80;;;;;;;31.78;25.33;101277.63;5136225;27;19968;-57
2023/06/13 10:43:43;;;;;;;7.07;4.13;;;;;;;31.42;24.27;101291.06;5152038;27;20034;-56
2023/06/13 10:46:12;;;;;;;8.45;4.13;;;;;;;31.34;25.17;101285.94;5152449;27;20385;-57
2023/06/13 10:48:48;;;;;;;6.32;4.18;;;;;;;31.34;25.27;101275.88;5154570;27;20505;-57
2023/06/13 10:51:20;;;;;;;6.95;4.22;;;;;;;31.43;24.94;101273.69;5151812;27;20500;-57
2023/06/13 10:53:57;;;;;;;8.05;4.47;;;;;;;31.62;24.68;101269.09;5151630;27;20035;-57
2023/06/13 10:56:31;;;;;;;8.18;3.78;;;;;;;32.05;23.41;101259.03;5150738;27;20053;-57
2023/06/13 10:59:03;;;;;;;5.90;3.80;;;;;;;32.27;24.08;101264.75;5151128;27;20042;-57
2023/06/13 11:01:33;;;;;;;6.35;3.92;;;;;;;32.22;23.68;101263.81;5150702;27;20053;-57
2023/06/13 11:04:09;;;;;;;8.00;3.90;;;;;;;32.38;23.96;101257.66;5154018;27;20046;-58
2023/06/13 11:06:38;;;;;;;7.07;4.18;;;;;;;32.38;22.18;101260.41;5151147;27;20047;-56
2023/06/13 11:09:15;;;;;;;7.38;4.30;;;;;;;32.46;23.06;101254.59;5151184;27;20050;-56
2023/06/13 11:11:47;;;;;;;8.40;4.18;;;;;;;32.37;22.82;101256.03;5152906;27;20046;-56
2023/06/13 11:14:16;;;;;;;8.07;4.30;;;;;;;32.35;22.99;101258.16;5154596;27;20117;-57
2023/06/13 11:16:45;;;;;;;6.38;3.97;;;;;;;32.44;22.80;101240.41;5151791;27;20091;-57
2023/06/13 11:19:15;;;;;;;7.60;4.15;;;;;;;32.76;23.19;101237.31;5133613;27;20049;-57
2023/06/13 11:21:45;;;;;;;7.53;4.13;;;;;;;32.59;22.45;101239.13;5154330;27;20138;-57
2023/06/13 11:24:18;;;;;;;7.32;4.40;;;;;;;32.80;22.74;101237.69;5135988;27;20080;-57
2023/06/13 11:26:49;;;;;;;6.70;3.95;;;;;;;33.12;22.80;101240.81;5150505;27;20058;-57
2023/06/13 11:29:18;;;;;;;9.23;4.00;;;;;;;33.06;22.01;101241.78;5150068;27;20057;-57
2023/06/13 11:31:47;;;;;;;7.80;4.65;;;;;;;33.20;22.34;101239.63;5150985;27;20477;-58
2023/06/13 11:34:17;;;;;;;7.88;4.30;;;;;;;33.29;22.81;101240.09;5151976;27;20039;-57
2023/06/13 11:36:46;;;;;;;8.75;4.03;;;;;;;33.41;22.01;101245.50;5154190;27;20042;-57
2023/06/13 11:39:27;;;;;;;7.80;4.57;;;;;;;33.52;22.10;101237.25;5151564;27;20046;-63